Isle of Wight, United Kingdom
Current Conditions -  °F | °C
As of 12:20 PM on Wednesday 26 Nov 2014 (Local Time) from EGHI Reporting Station
Haze Haze  
Wind Chill: 46°   Ceiling: 400
Heat Index: 46°   Visibility: 2.5mi
Dew Point: 46°   Wind: 3mph
Humidity: 100%   Direction: 20°NNE
Pressure: 29.83"   Gusts: NA
Location:  50.68°N, 1.4°W
Report Text: EGHI 261220Z 02003KT 4000 BR OVC004 08/08 Q1010
Loading
Personal Weather Stations






























Interactive Weather Map New forecast layout! Learn more

10-Day Weather Forecast

Advertisements
Track Severe Weather on mobile